Time;durP1;ratioP1;P1;durP2;ratioP2;P2;SDS_P1;SDS_P2;PMS_P1;PMS_P2;Temp;Humidity;BMP_temperature;BMP_pressure;BME280_temperature;BME280_humidity;BME280_pressure;Samples;Min_cycle;Max_cycle;Signal;HPM_P1;HPM_P2
2022/06/20 00:02:18;;;;;;;5.03;3.10;;;;;;;15.90;77.68;100487.66;4984464;28;20227;-83
2022/06/20 00:04:44;;;;;;;4.47;3.20;;;;;;;15.89;78.02;100502.06;4991355;28;20211;-84
2022/06/20 00:07:13;;;;;;;5.13;3.43;;;;;;;15.89;78.45;100580.81;4987127;28;20218;-84
2022/06/20 00:09:39;;;;;;;5.77;3.43;;;;;;;15.89;78.27;100615.72;4987789;28;20210;-82
2022/06/20 00:12:06;;;;;;;5.13;3.13;;;;;;;15.89;78.31;100617.56;4985806;28;20322;-83
2022/06/20 00:14:33;;;;;;;4.03;3.20;;;;;;;15.86;78.04;100621.34;4992218;28;20211;-83
2022/06/20 00:16:59;;;;;;;5.37;3.80;;;;;;;15.84;78.30;100622.47;4991300;28;20212;-82
2022/06/20 00:19:28;;;;;;;4.70;3.43;;;;;;;15.82;78.62;100633.34;4992787;28;20217;-82
2022/06/20 00:21:55;;;;;;;5.47;3.90;;;;;;;15.80;78.87;100645.19;4988689;28;20227;-82
2022/06/20 00:24:21;;;;;;;5.67;3.73;;;;;;;15.78;79.04;100641.78;4987120;28;20669;-84
2022/06/20 00:26:48;;;;;;;4.53;3.40;;;;;;;15.74;79.01;100600.94;4989131;28;20207;-84
2022/06/20 00:29:14;;;;;;;4.53;3.17;;;;;;;15.74;79.20;100603.63;4986506;28;20234;-81
2022/06/20 00:31:41;;;;;;;4.80;3.20;;;;;;;15.72;79.37;100586.78;4990151;28;20231;-83
2022/06/20 00:34:10;;;;;;;4.23;3.33;;;;;;;15.70;79.40;100569.09;4983830;28;20199;-82
2022/06/20 00:36:38;;;;;;;3.83;3.20;;;;;;;15.68;79.83;100566.53;4989342;28;20235;-84
2022/06/20 00:39:05;;;;;;;5.10;2.80;;;;;;;15.68;80.03;100554.97;4980640;28;20230;-83
2022/06/20 00:41:33;;;;;;;4.07;3.70;;;;;;;15.68;80.29;100550.44;4980945;28;20208;-82
2022/06/20 00:44:01;;;;;;;5.43;3.40;;;;;;;15.69;79.93;100529.81;4988624;28;20717;-84
2022/06/20 00:46:34;;;;;;;3.60;3.00;;;;;;;15.66;80.00;100504.06;4981664;28;20200;-84
2022/06/20 00:49:11;;;;;;;5.60;3.03;;;;;;;15.65;79.89;100475.53;4986087;28;20207;-84
2022/06/20 00:51:50;;;;;;;4.33;3.43;;;;;;;15.62;79.77;100478.47;4982617;28;20211;-83
2022/06/20 00:54:23;;;;;;;4.80;3.67;;;;;;;15.62;79.97;100470.41;4981423;28;20236;-83
2022/06/20 00:56:56;;;;;;;4.30;2.93;;;;;;;15.63;80.23;100480.19;4988073;28;20215;-85
2022/06/20 00:59:29;;;;;;;4.13;3.30;;;;;;;15.64;79.85;100471.13;4987439;28;20209;-84
2022/06/20 01:01:57;;;;;;;3.50;3.20;;;;;;;15.63;79.88;100462.22;4987715;28;20225;-85
2022/06/20 01:04:27;;;;;;;5.80;3.23;;;;;;;15.61;79.57;100447.25;4990567;28;20576;-86
2022/06/20 01:06:57;;;;;;;4.30;3.53;;;;;;;15.59;79.08;100444.69;4988234;28;20208;-84
2022/06/20 01:09:29;;;;;;;6.00;3.17;;;;;;;15.58;79.66;100424.22;4985861;28;20204;-85
2022/06/20 01:11:58;;;;;;;5.50;3.30;;;;;;;15.57;79.68;100425.22;4989212;28;20234;-84
2022/06/20 01:14:33;;;;;;;6.23;4.07;;;;;;;15.61;80.12;100439.19;4984015;28;20204;-86
2022/06/20 01:17:02;;;;;;;4.70;3.40;;;;;;;15.61;79.74;100458.81;4982194;28;20215;-84
2022/06/20 01:19:44;;;;;;;4.77;3.20;;;;;;;15.63;79.51;100480.19;4992990;28;20680;-84
2022/06/20 01:22:30;;;;;;;3.97;3.30;;;;;;;15.60;79.46;100492.03;4990066;28;20317;-84
2022/06/20 01:25:06;;;;;;;5.23;3.43;;;;;;;15.59;79.34;100471.53;4984756;28;20203;-84
2022/06/20 01:27:38;;;;;;;8.33;3.60;;;;;;;15.57;79.01;100472.69;4987567;28;20223;-83
2022/06/20 01:30:05;;;;;;;4.53;3.07;;;;;;;15.56;78.91;100468.28;4982802;28;20600;-85
2022/06/20 01:32:32;;;;;;;4.37;2.87;;;;;;;15.55;79.01;100466.56;4991910;28;20315;-85
2022/06/20 01:35:01;;;;;;;6.40;3.73;;;;;;;15.54;79.14;100451.44;4983866;28;20587;-84
2022/06/20 01:37:29;;;;;;;5.47;3.40;;;;;;;15.52;78.95;100438.16;4984242;28;20220;-81
2022/06/20 01:39:59;;;;;;;4.73;3.07;;;;;;;15.52;78.67;100439.97;4985321;28;20212;-84
2022/06/20 01:42:27;;;;;;;5.80;3.57;;;;;;;15.50;79.00;100455.34;4986308;28;20746;-84
2022/06/20 01:45:01;;;;;;;5.13;3.40;;;;;;;15.49;79.11;100467.06;4988942;28;20566;-83
2022/06/20 01:47:28;;;;;;;7.33;4.10;;;;;;;15.47;79.41;100455.63;4989525;28;20286;-82
2022/06/20 01:50:00;;;;;;;6.93;4.10;;;;;;;15.44;79.61;100447.81;4983878;28;20206;-84
2022/06/20 01:52:31;;;;;;;6.53;3.80;;;;;;;15.42;79.41;100453.31;4993948;28;20238;-84
2022/06/20 01:55:02;;;;;;;6.00;4.27;;;;;;;15.41;79.84;100461.50;4990229;28;20220;-86
2022/06/20 01:57:30;;;;;;;6.40;3.80;;;;;;;15.39;80.02;100487.66;4988803;28;20207;-83
2022/06/20 02:00:03;;;;;;;5.70;3.93;;;;;;;15.37;79.76;100494.97;4987891;28;20274;-84
2022/06/20 02:02:34;;;;;;;5.63;3.70;;;;;;;15.38;80.57;100494.00;4987726;28;20657;-84
2022/06/20 02:05:03;;;;;;;6.87;4.57;;;;;;;15.37;80.52;100492.31;4987997;28;20208;-84
2022/06/20 02:07:32;;;;;;;7.37;4.57;;;;;;;15.35;80.47;100460.22;4985413;28;20213;-84
2022/06/20 02:09:58;;;;;;;5.93;4.40;;;;;;;15.37;80.83;100476.19;4988604;28;20218;-85
2022/06/20 02:12:26;;;;;;;5.20;4.70;;;;;;;15.36;80.90;100444.97;4988085;28;20231;-85
2022/06/20 02:14:57;;;;;;;6.10;3.97;;;;;;;15.34;80.87;100422.78;4987841;28;20219;-82
2022/06/20 02:17:31;;;;;;;10.07;5.20;;;;;;;15.31;81.29;100393.53;4989186;28;20277;-85
2022/06/20 02:20:03;;;;;;;8.13;4.93;;;;;;;15.28;81.34;100392.81;4986356;28;20206;-85
2022/06/20 02:22:32;;;;;;;8.90;4.50;;;;;;;15.25;81.45;100368.94;4986447;28;20262;-85
2022/06/20 02:25:06;;;;;;;11.03;5.27;;;;;;;15.24;81.65;100406.63;4986826;28;20303;-84
2022/06/20 02:27:38;;;;;;;6.00;4.97;;;;;;;15.21;81.97;100431.06;4984139;28;20212;-85
2022/06/20 02:30:06;;;;;;;7.07;5.10;;;;;;;15.21;82.36;100418.50;4989008;28;20722;-84
2022/06/20 02:32:38;;;;;;;5.83;5.33;;;;;;;15.20;82.99;100398.00;4989810;28;20717;-84
2022/06/20 02:35:09;;;;;;;6.80;4.70;;;;;;;15.19;82.98;100404.34;4991437;28;20875;-85
2022/06/20 02:37:36;;;;;;;8.27;5.07;;;;;;;15.16;83.11;100460.94;4992561;28;20212;-84
2022/06/20 02:40:06;;;;;;;5.67;5.07;;;;;;;15.14;83.06;100451.34;4987624;28;20553;-84
2022/06/20 02:42:39;;;;;;;6.37;5.43;;;;;;;15.14;83.64;100444.13;4982068;28;20227;-84
2022/06/20 02:45:10;;;;;;;6.17;5.00;;;;;;;15.13;83.96;100439.75;4987347;28;20200;-84
2022/06/20 02:47:40;;;;;;;7.23;5.80;;;;;;;15.14;84.22;100427.19;4983473;28;20201;-84
2022/06/20 02:50:07;;;;;;;8.53;5.27;;;;;;;15.12;83.81;100419.28;4991993;28;20223;-84
2022/06/20 02:52:40;;;;;;;6.63;5.20;;;;;;;15.10;83.96;100448.06;4981636;28;20310;-83
2022/06/20 02:55:07;;;;;;;5.60;5.10;;;;;;;15.05;84.47;100466.34;4988327;28;20571;-83
2022/06/20 02:57:38;;;;;;;7.20;5.67;;;;;;;15.01;84.57;100467.63;4982722;28;20208;-85
2022/06/20 03:00:09;;;;;;;10.00;6.70;;;;;;;14.96;84.59;100451.06;4983108;28;20299;-84
2022/06/20 03:02:39;;;;;;;10.47;7.03;;;;;;;14.92;84.16;100447.78;4987562;28;20639;-84
2022/06/20 03:05:07;;;;;;;9.07;6.93;;;;;;;14.89;84.67;100456.09;4989301;28;20205;-85
2022/06/20 03:07:37;;;;;;;9.37;6.93;;;;;;;14.85;84.81;100484.16;4978698;28;20578;-84
2022/06/20 03:10:17;;;;;;;9.30;7.67;;;;;;;14.81;85.05;100469.31;4987283;28;20207;-86
2022/06/20 03:12:44;;;;;;;9.70;8.70;;;;;;;14.78;84.94;100503.56;4991335;28;20241;-85
2022/06/20 03:15:12;;;;;;;9.57;7.90;;;;;;;14.73;84.82;100508.44;4982629;28;20208;-84
2022/06/20 03:17:41;;;;;;;10.97;8.73;;;;;;;14.70;85.39;100524.75;4982900;28;20287;-84
2022/06/20 03:20:13;;;;;;;10.03;9.03;;;;;;;14.66;85.57;100528.69;4987346;28;20214;-85
2022/06/20 03:22:47;;;;;;;8.30;7.40;;;;;;;14.64;85.50;100530.66;4980169;28;20330;-85
2022/06/20 03:25:16;;;;;;;7.50;6.60;;;;;;;14.59;85.54;100552.47;4981770;28;20211;-84
2022/06/20 03:27:43;;;;;;;6.97;6.20;;;;;;;14.55;85.53;100586.69;4989617;28;20219;-86
2022/06/20 03:30:27;;;;;;;8.93;6.33;;;;;;;14.53;85.74;100609.22;4987523;28;20669;-85
2022/06/20 03:32:56;;;;;;;9.37;5.67;;;;;;;14.53;85.50;100590.47;4983079;28;20234;-85
2022/06/20 03:35:23;;;;;;;9.87;5.83;;;;;;;14.51;85.79;100585.22;4984965;28;20222;-85
2022/06/20 03:37:50;;;;;;;9.27;6.87;;;;;;;14.49;86.00;100587.22;4975766;28;20209;-85
2022/06/20 03:40:18;;;;;;;7.77;5.50;;;;;;;14.48;85.59;100619.50;4986842;28;20212;-85
2022/06/20 03:42:45;;;;;;;7.53;5.53;;;;;;;14.47;85.92;100633.88;4989170;28;20242;-84
2022/06/20 03:45:15;;;;;;;6.23;4.40;;;;;;;14.47;86.15;100647.25;4982969;28;20208;-85
2022/06/20 03:47:47;;;;;;;7.10;4.40;;;;;;;14.47;86.25;100674.06;4981795;28;20247;-85
2022/06/20 03:50:21;;;;;;;7.33;4.60;;;;;;;14.45;86.07;100678.69;4982490;28;20203;-85
2022/06/20 03:52:53;;;;;;;8.63;5.27;;;;;;;14.45;86.64;100670.63;4979312;28;20234;-85
2022/06/20 03:55:28;;;;;;;9.87;5.63;;;;;;;14.42;86.67;100671.72;4987117;28;20663;-85
2022/06/20 03:57:59;;;;;;;6.93;4.97;;;;;;;14.39;86.76;100655.00;4983010;28;20203;-85
2022/06/20 04:00:35;;;;;;;10.80;5.53;;;;;;;14.39;86.55;100639.78;4981456;28;20207;-85
2022/06/20 04:03:07;;;;;;;9.87;5.27;;;;;;;14.38;86.87;100639.91;4982860;28;20262;-84
2022/06/20 04:05:40;;;;;;;8.80;5.43;;;;;;;14.35;86.99;100618.72;4976730;28;20216;-85
2022/06/20 04:08:14;;;;;;;6.67;5.50;;;;;;;14.31;86.69;100588.66;4982187;28;20200;-85
2022/06/20 04:11:01;;;;;;;7.10;5.60;;;;;;;14.30;86.97;100553.94;4976643;28;20266;-84
2022/06/20 04:13:37;;;;;;;6.00;5.00;;;;;;;14.30;87.25;100544.09;4983798;28;20714;-85
2022/06/20 04:16:08;;;;;;;12.40;5.90;;;;;;;14.30;87.07;100530.69;4980924;28;20211;-86
2022/06/20 04:18:40;;;;;;;6.67;5.17;;;;;;;14.29;87.35;100515.59;4978564;28;20226;-85
2022/06/20 04:21:17;;;;;;;8.87;5.30;;;;;;;14.29;87.55;100494.16;4978949;28;20266;-85
2022/06/20 04:23:51;;;;;;;9.03;5.77;;;;;;;14.30;87.61;100489.66;4979976;28;20313;-84
2022/06/20 04:26:22;;;;;;;8.87;4.90;;;;;;;14.33;87.85;100474.16;4976254;28;20207;-86
2022/06/20 04:28:53;;;;;;;7.67;5.50;;;;;;;14.32;87.60;100464.44;4979471;28;20254;-85
2022/06/20 04:31:26;;;;;;;6.40;5.20;;;;;;;14.31;87.91;100446.66;4983326;28;20219;-84
2022/06/20 04:34:00;;;;;;;10.33;5.00;;;;;;;14.28;88.02;100433.53;4987167;28;20210;-83
2022/06/20 04:36:36;;;;;;;6.47;5.07;;;;;;;14.24;87.52;100416.00;4986332;28;20203;-85
2022/06/20 04:39:15;;;;;;;6.63;5.10;;;;;;;14.20;88.01;100402.00;4991588;28;20818;-84
2022/06/20 04:41:57;;;;;;;10.63;5.03;;;;;;;14.17;88.11;100374.59;4989399;28;20654;-84
2022/06/20 04:44:30;;;;;;;7.20;4.00;;;;;;;14.13;87.82;100341.03;4982414;28;20212;-84
2022/06/20 04:47:11;;;;;;;6.83;4.03;;;;;;;14.08;87.97;100332.53;4989035;28;20566;-83
2022/06/20 04:49:39;;;;;;;6.37;4.20;;;;;;;14.04;87.77;100315.00;4982227;28;20211;-83
2022/06/20 04:52:12;;;;;;;6.03;3.77;;;;;;;13.99;87.82;100293.13;4983206;28;20235;-84
2022/06/20 04:54:39;;;;;;;6.30;4.23;;;;;;;13.96;88.47;100271.97;4988125;28;20266;-82
2022/06/20 04:57:06;;;;;;;7.63;4.50;;;;;;;13.94;88.08;100257.88;4984126;28;20216;-83
2022/06/20 04:59:33;;;;;;;6.97;3.87;;;;;;;13.90;88.16;100247.41;4985596;28;20210;-82
2022/06/20 05:02:06;;;;;;;6.40;4.57;;;;;;;13.89;88.90;100251.06;4986820;28;20315;-84
2022/06/20 05:04:37;;;;;;;6.23;4.43;;;;;;;13.88;89.38;100251.19;4983474;28;20204;-84
2022/06/20 05:07:14;;;;;;;6.20;4.43;;;;;;;13.86;89.47;100251.31;4983952;28;20214;-83
2022/06/20 05:09:45;;;;;;;5.60;4.83;;;;;;;13.88;89.69;100249.38;4986298;28;20200;-84
2022/06/20 05:12:18;;;;;;;9.17;4.63;;;;;;;13.88;89.94;100246.69;4984220;28;20583;-83
2022/06/20 05:14:51;;;;;;;7.67;3.83;;;;;;;13.85;89.42;100260.31;4987405;28;20211;-83
2022/06/20 05:17:21;;;;;;;7.80;4.57;;;;;;;13.86;89.84;100258.50;4985150;28;20208;-83
2022/06/20 05:19:51;;;;;;;8.40;4.20;;;;;;;13.87;90.17;100284.28;4986865;28;20203;-83
2022/06/20 05:22:24;;;;;;;6.93;3.37;;;;;;;13.86;89.77;100317.38;4985570;28;20236;-84
2022/06/20 05:24:53;;;;;;;6.30;3.60;;;;;;;13.84;89.64;100362.16;4984274;28;20206;-85
2022/06/20 05:27:25;;;;;;;8.43;3.67;;;;;;;13.86;90.09;100398.53;4980071;28;20262;-85
2022/06/20 05:29:54;;;;;;;5.90;3.40;;;;;;;13.89;90.41;100409.00;4988649;28;20259;-86
2022/06/20 05:32:25;;;;;;;7.40;3.83;;;;;;;13.96;90.29;100411.22;4987404;28;20682;-84
2022/06/20 05:34:58;;;;;;;6.20;4.37;;;;;;;14.01;90.43;100409.84;4989895;28;20238;-86
2022/06/20 05:37:36;;;;;;;8.27;3.40;;;;;;;14.05;89.87;100399.72;4985555;28;21447;-86
2022/06/20 05:40:10;;;;;;;5.57;4.00;;;;;;;14.08;89.81;100403.00;4986556;28;20204;-85
2022/06/20 05:42:37;;;;;;;8.60;5.50;;;;;;;14.11;89.74;100416.16;4988306;28;20238;-86
2022/06/20 05:45:14;;;;;;;7.43;5.30;;;;;;;14.17;89.69;100428.19;4987039;28;20320;-86
2022/06/20 05:47:42;;;;;;;9.37;4.93;;;;;;;14.22;89.60;100436.69;4984385;28;20599;-86
2022/06/20 05:50:24;;;;;;;6.67;4.93;;;;;;;14.27;89.46;100436.31;4989437;28;20220;-87
2022/06/20 05:52:52;;;;;;;9.03;4.80;;;;;;;14.34;89.06;100440.19;4986364;28;20230;-86
2022/06/20 05:55:25;;;;;;;8.10;4.83;;;;;;;14.38;89.20;100447.84;4982720;28;20208;-86
2022/06/20 05:57:55;;;;;;;9.17;4.80;;;;;;;14.42;88.65;100443.97;4986701;28;20211;-86
2022/06/20 06:00:25;;;;;;;7.63;3.83;;;;;;;14.45;88.29;100445.56;4986433;28;20667;-86
2022/06/20 06:02:57;;;;;;;7.63;3.80;;;;;;;14.47;87.97;100459.69;4988294;28;20273;-86
2022/06/20 06:05:29;;;;;;;6.47;3.37;;;;;;;14.50;87.72;100472.84;4989183;28;20246;-86
2022/06/20 06:08:03;;;;;;;4.93;3.70;;;;;;;14.49;87.10;100488.06;4987422;28;20207;-86
2022/06/20 06:10:37;;;;;;;13.60;4.90;;;;;;;14.49;86.78;100488.06;4983971;28;20215;-85
2022/06/20 06:13:14;;;;;;;5.67;4.10;;;;;;;14.52;87.02;100494.97;4984796;28;20972;-86
2022/06/20 06:18:30;;;;;;;5.73;3.20;;;;;;;14.57;86.14;100523.09;4986067;28;20214;-86
2022/06/20 06:20:56;;;;;;;7.07;3.20;;;;;;;14.55;85.53;100529.56;4984585;28;20695;-85
2022/06/20 06:23:24;;;;;;;7.60;3.43;;;;;;;14.53;85.57;100551.13;4987253;28;20254;-86
2022/06/20 06:25:51;;;;;;;4.70;2.53;;;;;;;14.52;84.97;100565.50;4988333;28;20211;-86
2022/06/20 06:28:22;;;;;;;6.03;2.77;;;;;;;14.52;84.85;100561.97;4980559;28;20208;-85
2022/06/20 06:30:53;;;;;;;8.27;3.33;;;;;;;14.51;84.87;100573.69;4986692;28;20204;-85
2022/06/20 06:33:26;;;;;;;7.00;2.53;;;;;;;14.51;84.71;100573.69;4987716;28;20315;-86
2022/06/20 06:35:59;;;;;;;4.63;2.53;;;;;;;14.51;84.48;100577.19;4986287;28;20212;-83
2022/06/20 06:38:33;;;;;;;7.90;2.00;;;;;;;14.50;84.32;100582.72;4987116;28;20578;-84
2022/06/20 06:41:01;;;;;;;5.03;1.93;;;;;;;14.49;83.91;100589.03;4983796;28;20223;-85
2022/06/20 06:43:30;;;;;;;7.90;2.43;;;;;;;14.47;83.86;100588.31;4983624;28;20231;-85
2022/06/20 06:46:00;;;;;;;7.23;2.60;;;;;;;14.49;84.05;100587.22;4986741;28;20200;-85
2022/06/20 06:48:32;;;;;;;7.57;4.10;;;;;;;14.50;83.92;100588.91;4988350;28;20575;-86
2022/06/20 06:51:05;;;;;;;8.20;3.67;;;;;;;14.52;83.91;100586.09;4985042;28;20207;-85
2022/06/20 06:53:38;;;;;;;6.07;3.43;;;;;;;14.50;84.40;100586.25;4986997;28;20615;-85
2022/06/20 06:56:11;;;;;;;7.80;3.07;;;;;;;14.50;84.20;100578.19;4987743;28;20208;-85
2022/06/20 06:58:44;;;;;;;6.13;2.53;;;;;;;14.49;84.75;100564.91;4986328;28;20207;-85
2022/06/20 07:01:14;;;;;;;9.10;2.97;;;;;;;14.45;84.26;100569.66;4988058;28;20215;-85
2022/06/20 07:03:45;;;;;;;5.33;2.40;;;;;;;14.40;84.16;100569.19;4985991;28;20224;-84
2022/06/20 07:06:17;;;;;;;11.17;2.40;;;;;;;14.37;84.29;100565.84;4985352;28;20234;-84
2022/06/20 07:08:50;;;;;;;6.10;2.20;;;;;;;14.35;84.40;100557.94;4988498;28;20199;-85
2022/06/20 07:11:21;;;;;;;5.40;2.10;;;;;;;14.33;84.50;100553.72;4988757;28;20211;-86
2022/06/20 07:13:59;;;;;;;3.30;1.87;;;;;;;14.33;84.47;100538.44;4982399;28;20259;-86
2022/06/20 07:16:30;;;;;;;6.13;1.90;;;;;;;14.32;84.42;100528.75;4981824;28;20279;-85
2022/06/20 07:18:59;;;;;;;4.37;1.87;;;;;;;14.32;84.80;100510.00;4986948;28;20200;-85
2022/06/20 07:21:27;;;;;;;8.07;2.77;;;;;;;14.33;84.84;100508.97;4987559;28;20214;-85
2022/06/20 07:23:59;;;;;;;5.23;2.40;;;;;;;14.34;84.50;100499.13;4984290;28;20208;-85
2022/06/20 07:26:31;;;;;;;4.40;2.13;;;;;;;14.34;84.63;100505.34;4984020;28;20211;-83
2022/06/20 07:29:03;;;;;;;4.70;2.20;;;;;;;14.33;84.78;100500.94;4987949;28;20195;-85
2022/06/20 07:31:34;;;;;;;6.50;2.50;;;;;;;14.35;85.00;100507.03;4990012;28;20558;-86
2022/06/20 07:34:08;;;;;;;4.17;1.97;;;;;;;14.36;84.84;100500.72;4981661;28;20309;-86
2022/06/20 07:36:41;;;;;;;5.03;2.27;;;;;;;14.37;84.85;100502.41;4984371;28;20204;-85
2022/06/20 07:39:14;;;;;;;7.77;2.73;;;;;;;14.39;85.00;100504.97;4987214;28;20570;-86
2022/06/20 07:41:46;;;;;;;5.53;2.70;;;;;;;14.40;85.05;100510.22;4988460;28;20290;-86
2022/06/20 07:44:18;;;;;;;4.90;1.67;;;;;;;14.41;85.15;100509.25;4985196;28;20199;-86
2022/06/20 07:46:52;;;;;;;7.13;2.60;;;;;;;14.43;85.14;100514.50;4987786;28;20611;-86
2022/06/20 07:49:25;;;;;;;4.37;1.73;;;;;;;14.42;85.10;100515.47;4986935;28;20299;-86
2022/06/20 07:51:56;;;;;;;4.30;1.80;;;;;;;14.43;85.21;100530.56;4983677;28;20223;-86
2022/06/20 07:54:29;;;;;;;6.73;2.10;;;;;;;14.44;84.79;100527.78;4982207;28;20239;-86
2022/06/20 07:57:00;;;;;;;5.47;1.90;;;;;;;14.44;85.01;100538.50;4976023;28;20207;-86
2022/06/20 07:59:34;;;;;;;5.33;2.10;;;;;;;14.43;84.61;100531.44;4983575;28;20203;-85
2022/06/20 08:02:06;;;;;;;6.07;1.97;;;;;;;14.43;84.32;100528.75;4979685;28;20243;-85
2022/06/20 08:04:35;;;;;;;4.53;2.17;;;;;;;14.44;84.44;100521.56;4981997;28;20295;-85
2022/06/20 08:07:07;;;;;;;7.10;2.47;;;;;;;14.45;84.04;100513.41;4979332;28;20214;-85
2022/06/20 08:09:41;;;;;;;5.23;2.40;;;;;;;14.48;84.62;100523.03;4982724;28;20549;-85
2022/06/20 08:12:15;;;;;;;7.57;2.23;;;;;;;14.53;84.42;100532.38;4985212;28;20234;-85
2022/06/20 08:14:46;;;;;;;5.80;1.90;;;;;;;14.56;84.53;100534.81;4979577;28;20214;-85
2022/06/20 08:17:13;;;;;;;6.17;2.13;;;;;;;14.60;84.14;100543.44;4985169;28;20207;-85
2022/06/20 08:19:42;;;;;;;7.27;2.30;;;;;;;14.64;84.20;100547.59;4984217;28;20212;-85
2022/06/20 08:22:12;;;;;;;6.13;2.10;;;;;;;14.66;83.68;100551.00;4982122;28;20227;-85
2022/06/20 08:24:46;;;;;;;7.13;2.50;;;;;;;14.69;83.69;100549.91;4983469;28;20203;-86
2022/06/20 08:27:22;;;;;;;9.57;2.67;;;;;;;14.71;84.24;100554.13;4982920;28;20210;-84
2022/06/20 08:29:53;;;;;;;5.97;2.30;;;;;;;14.76;83.92;100567.16;4983376;28;20204;-85
2022/06/20 08:32:28;;;;;;;5.97;2.20;;;;;;;14.77;83.79;100568.88;4980896;28;20237;-85
2022/06/20 08:35:00;;;;;;;6.27;2.20;;;;;;;14.75;83.37;100562.78;4986502;28;20195;-85
2022/06/20 08:37:35;;;;;;;5.13;1.90;;;;;;;14.75;83.12;100566.31;4982073;28;20196;-85
2022/06/20 08:40:23;;;;;;;8.37;2.13;;;;;;;14.73;83.06;100568.25;4982430;28;20202;-85
2022/06/20 08:43:14;;;;;;;8.70;2.33;;;;;;;14.71;82.32;100567.53;4983733;28;20242;-85
2022/06/20 08:46:03;;;;;;;4.97;2.67;;;;;;;14.72;82.40;100565.72;4978269;28;20211;-85
2022/06/20 08:49:09;;;;;;;9.57;2.20;;;;;;;14.75;82.14;100571.69;4982063;28;20214;-85
2022/06/20 08:52:09;;;;;;;6.43;2.60;;;;;;;14.79;81.61;100577.66;4978078;28;20678;-84
2022/06/20 08:55:02;;;;;;;9.03;2.70;;;;;;;14.80;81.32;100582.03;4969417;28;20591;-85
2022/06/20 08:57:39;;;;;;;5.60;2.70;;;;;;;14.84;81.41;100575.44;4989035;28;20216;-85
2022/06/20 09:00:10;;;;;;;8.60;2.67;;;;;;;14.88;81.44;100580.41;4987245;28;20299;-85
2022/06/20 09:03:04;;;;;;;7.57;2.20;;;;;;;14.91;81.38;100593.56;4991169;28;20848;-85
2022/06/20 09:05:47;;;;;;;7.50;2.80;;;;;;;14.93;80.64;100588.09;4977647;28;20211;-85
2022/06/20 09:08:35;;;;;;;6.37;2.67;;;;;;;14.97;80.32;100584.19;4983141;28;20200;-86
2022/06/20 09:11:19;;;;;;;9.57;3.10;;;;;;;15.02;80.03;100584.66;4978810;28;20204;-86
2022/06/20 09:14:05;;;;;;;7.20;2.43;;;;;;;15.07;79.70;100585.09;4980817;28;20383;-85
2022/06/20 09:16:43;;;;;;;5.53;2.63;;;;;;;15.14;79.83;100588.13;4980292;28;20223;-85
2022/06/20 09:19:35;;;;;;;9.47;2.80;;;;;;;15.20;79.29;100583.13;4994671;28;20287;-86
2022/06/20 09:22:16;;;;;;;7.53;3.53;;;;;;;15.27;79.57;100581.59;4991541;28;20287;-84
2022/06/20 09:24:59;;;;;;;9.20;3.67;;;;;;;15.35;78.92;100583.66;4985512;28;20785;-85
2022/06/20 09:27:40;;;;;;;12.90;3.30;;;;;;;15.43;78.89;100574.94;4989572;28;20547;-84
2022/06/20 09:30:14;;;;;;;5.50;2.33;;;;;;;15.53;78.45;100578.56;4990272;28;20943;-84
2022/06/20 09:33:33;;;;;;;10.40;2.93;;;;;;;15.60;78.48;100572.56;4986449;28;20240;-85
2022/06/20 09:36:15;;;;;;;5.17;3.00;;;;;;;15.71;77.96;100563.59;4984698;28;20208;-85
2022/06/20 09:38:58;;;;;;;8.17;2.77;;;;;;;15.79;77.95;100561.09;4991152;28;20210;-85
2022/06/20 09:41:32;;;;;;;7.43;2.70;;;;;;;15.86;77.21;100574.84;4983539;28;20210;-85
2022/06/20 09:44:16;;;;;;;7.40;2.90;;;;;;;15.91;76.62;100572.63;4987200;28;20822;-86
2022/06/20 09:46:55;;;;;;;6.70;2.33;;;;;;;15.92;75.86;100571.66;4991422;28;20210;-85
2022/06/20 09:49:33;;;;;;;7.53;2.70;;;;;;;15.98;75.83;100569.25;4993028;28;20226;-85
2022/06/20 09:52:09;;;;;;;8.07;2.70;;;;;;;16.04;75.01;100564.34;4992824;28;20239;-85
2022/06/20 09:54:46;;;;;;;6.17;2.77;;;;;;;16.09;74.31;100567.47;4992221;28;20684;-85
2022/06/20 09:57:23;;;;;;;5.50;2.50;;;;;;;16.14;74.00;100573.28;4985623;28;20214;-86
2022/06/20 09:59:56;;;;;;;6.60;2.53;;;;;;;16.22;73.57;100574.31;4980610;28;20265;-85
2022/06/20 10:02:30;;;;;;;5.73;2.73;;;;;;;16.28;73.49;100576.47;4988239;28;20260;-86
2022/06/20 10:05:08;;;;;;;7.73;2.70;;;;;;;16.39;73.29;100570.16;4986917;28;20197;-85
2022/06/20 10:07:45;;;;;;;7.90;2.80;;;;;;;16.50;73.26;100575.41;4984434;28;20210;-86
2022/06/20 10:10:18;;;;;;;7.07;2.60;;;;;;;16.64;72.56;100567.00;4981069;28;20708;-86
2022/06/20 10:12:49;;;;;;;4.87;2.20;;;;;;;16.78;72.00;100570.28;4990414;28;20226;-85
2022/06/20 10:15:25;;;;;;;10.53;2.77;;;;;;;16.95;72.14;100565.06;4986492;28;20203;-85
2022/06/20 10:18:02;;;;;;;6.50;2.03;;;;;;;17.16;71.28;100569.47;4984040;28;20740;-85
2022/06/20 10:20:43;;;;;;;5.43;2.10;;;;;;;17.29;70.26;100572.72;4987088;28;20214;-85
2022/06/20 10:23:23;;;;;;;4.60;2.00;;;;;;;17.43;69.44;100574.13;4986179;28;20721;-85
2022/06/20 10:26:13;;;;;;;3.43;1.80;;;;;;;17.57;68.84;100569.16;4991471;28;20211;-85
2022/06/20 10:28:46;;;;;;;4.97;2.27;;;;;;;17.77;68.28;100567.31;4986683;28;20209;-85
2022/06/20 10:31:25;;;;;;;5.87;2.10;;;;;;;17.93;68.05;100567.53;4978866;28;20219;-86
2022/06/20 10:34:04;;;;;;;4.60;1.80;;;;;;;18.07;67.44;100570.78;4986713;28;20232;-86
2022/06/20 10:36:46;;;;;;;5.70;1.90;;;;;;;18.16;66.54;100577.97;4989120;28;20195;-85
2022/06/20 10:39:25;;;;;;;2.87;1.53;;;;;;;18.26;65.65;100573.41;4983927;28;20213;-85
2022/06/20 10:42:08;;;;;;;7.23;1.80;;;;;;;18.36;64.90;100576.91;4991134;28;20233;-86
2022/06/20 10:44:48;;;;;;;5.57;1.70;;;;;;;18.44;63.24;100592.34;4984073;28;20205;-86
2022/06/20 10:47:20;;;;;;;5.40;1.83;;;;;;;18.44;61.05;100603.13;4988041;28;20196;-85
2022/06/20 10:50:11;;;;;;;3.03;1.50;;;;;;;18.45;60.68;100594.88;4991822;28;20197;-86
2022/06/20 10:52:58;;;;;;;5.97;2.00;;;;;;;18.53;60.67;100584.19;4991516;28;20235;-85
2022/06/20 10:55:36;;;;;;;3.73;1.80;;;;;;;18.60;59.62;100574.56;4991507;28;20233;-85
2022/06/20 10:58:13;;;;;;;6.57;1.70;;;;;;;18.66;58.87;100592.81;4991319;28;20205;-86
2022/06/20 11:00:46;;;;;;;3.43;1.60;;;;;;;18.72;58.19;100599.47;4991232;28;20207;-86
2022/06/20 11:03:45;;;;;;;2.87;1.50;;;;;;;18.77;57.89;100588.22;4991546;28;20290;-86
2022/06/20 11:06:25;;;;;;;4.30;1.60;;;;;;;18.78;57.39;100588.09;4992285;28;20221;-85
2022/06/20 11:08:59;;;;;;;4.00;1.63;;;;;;;18.83;57.42;100588.44;4992282;28;20212;-85
2022/06/20 11:11:42;;;;;;;3.93;1.67;;;;;;;18.87;57.72;100583.59;4988728;28;20276;-86
2022/06/20 11:14:17;;;;;;;3.90;1.30;;;;;;;18.91;57.71;100585.84;4972648;28;20221;-86
2022/06/20 11:16:49;;;;;;;5.60;1.93;;;;;;;18.96;57.93;100588.09;4972860;28;20756;-86
2022/06/20 11:19:26;;;;;;;5.90;2.03;;;;;;;19.07;58.38;100582.47;4973109;28;20236;-85
2022/06/20 11:22:04;;;;;;;3.90;1.57;;;;;;;19.18;57.99;100592.19;4983997;28;20230;-86
2022/06/20 11:24:45;;;;;;;3.40;1.90;;;;;;;19.32;58.06;100586.28;4985080;28;20578;-86
2022/06/20 11:27:25;;;;;;;6.13;2.27;;;;;;;19.48;58.34;100588.25;4991582;28;20213;-86
2022/06/20 11:30:06;;;;;;;3.13;1.80;;;;;;;19.65;57.29;100585.56;4991125;28;20232;-85
2022/06/20 11:32:44;;;;;;;4.37;1.87;;;;;;;19.70;56.00;100585.94;4984305;28;20242;-85
2022/06/20 11:35:24;;;;;;;5.63;1.90;;;;;;;19.70;54.49;100582.41;4981277;28;20265;-85
2022/06/20 11:38:02;;;;;;;5.43;2.00;;;;;;;19.69;54.38;100586.09;4983547;28;20233;-85
2022/06/20 11:40:40;;;;;;;2.67;1.30;;;;;;;19.73;54.41;100573.94;4980357;28;20245;-85
2022/06/20 11:43:38;;;;;;;2.17;1.37;;;;;;;19.74;53.50;100578.34;4980215;28;20249;-86
2022/06/20 11:46:29;;;;;;;2.57;1.50;;;;;;;19.77;53.01;100567.22;4973472;28;20208;-86
2022/06/20 11:49:08;;;;;;;3.53;1.67;;;;;;;19.85;53.38;100570.00;4974873;28;20212;-86
2022/06/20 11:51:49;;;;;;;4.23;1.40;;;;;;;19.99;52.84;100565.88;4977133;28;20218;-85
2022/06/20 11:54:30;;;;;;;2.10;1.20;;;;;;;20.04;51.11;100568.94;4983435;28;20211;-86
2022/06/20 11:57:11;;;;;;;3.30;1.30;;;;;;;20.02;49.93;100577.22;4982667;28;20236;-85
2022/06/20 11:59:46;;;;;;;2.60;1.17;;;;;;;20.05;49.09;100578.75;4980551;28;20671;-86